Time;durP1;ratioP1;P1;durP2;ratioP2;P2;SDS_P1;SDS_P2;PMS_P1;PMS_P2;Temp;Humidity;BMP_temperature;BMP_pressure;BME280_temperature;BME280_humidity;BME280_pressure;Samples;Min_cycle;Max_cycle;Signal;HPM_P1;HPM_P2
2022/06/02 00:01:08;;;;;;;1.52;0.80;;;;;;;;;;5014298;28;20514;-51
2022/06/02 00:03:49;;;;;;;0.95;0.50;;;;;;;;;;5016310;28;20018;-54
2022/06/02 00:06:37;;;;;;;1.20;0.70;;;;;;;;;;5015997;28;20026;-54
2022/06/02 00:09:03;;;;;;;1.02;0.60;;;;;;;;;;5014649;28;20037;-51
2022/06/02 00:11:48;;;;;;;1.10;0.70;;;;;;;;;;5014424;28;20034;-51
2022/06/02 00:14:20;;;;;;;0.70;0.63;;;;;;;;;;5015520;28;20044;-52
2022/06/02 00:16:46;;;;;;;;;;;;;;;;;;4994957;28;20487;-51
2022/06/02 00:19:16;;;;;;;2.42;0.73;;;;;;;;;;5012900;28;19913;-54
2022/06/02 00:21:42;;;;;;;0.50;0.50;;;;;;;;;;5013085;28;20026;-52
2022/06/02 00:24:28;;;;;;;1.13;0.65;;;;;;;;;;5015374;28;20079;-51
2022/06/02 00:27:16;;;;;;;0.90;0.63;;;;;;;;;;5009390;28;20026;-52
2022/06/02 00:29:51;;;;;;;1.08;0.70;;;;;;;;;;5012654;28;20029;-54
2022/06/02 00:32:39;;;;;;;1.95;0.70;;;;;;;;;;5013869;28;20042;-50
2022/06/02 00:35:12;;;;;;;0.80;0.55;;;;;;;;;;5009000;28;20029;-51
2022/06/02 00:37:44;;;;;;;1.98;1.00;;;;;;;;;;5011754;28;20034;-50
2022/06/02 00:40:11;;;;;;;0.60;0.50;;;;;;;;;;5015418;28;20022;-53
2022/06/02 00:43:10;;;;;;;1.10;0.82;;;;;;;;;;5014653;28;20540;-52
2022/06/02 00:45:41;;;;;;;0.55;0.50;;;;;;;;;;4974689;28;20030;-53
2022/06/02 00:48:07;;;;;;;1.30;0.85;;;;;;;;;;5013621;28;20373;-50
2022/06/02 00:50:40;;;;;;;1.60;0.73;;;;;;;;;;5012576;28;20026;-51
2022/06/02 00:53:06;;;;;;;1.10;0.50;;;;;;;;;;5014947;28;20048;-54
2022/06/02 00:58:28;;;;;;;1.70;0.70;;;;;;;;;;5013403;28;20045;-52
2022/06/02 01:01:01;;;;;;;1.63;0.80;;;;;;;;;;5010623;28;20030;-53
2022/06/02 01:03:31;;;;;;;0.63;0.57;;;;;;;;;;5013737;28;20022;-52
2022/06/02 01:05:56;;;;;;;0.80;0.68;;;;;;;;;;5014073;28;20363;-53
2022/06/02 01:08:38;;;;;;;0.75;0.65;;;;;;;;;;5014449;28;20038;-50
2022/06/02 01:11:04;;;;;;;0.90;0.80;;;;;;;;;;5013511;28;20091;-53
2022/06/02 01:13:30;;;;;;;0.57;0.40;;;;;;;;;;5012579;28;20065;-52
2022/06/02 01:15:56;;;;;;;0.82;0.50;;;;;;;;;;5014424;28;20468;-50
2022/06/02 01:18:21;;;;;;;0.50;0.50;;;;;;;;;;5012798;28;20030;-51
2022/06/02 01:20:52;;;;;;;1.23;0.60;;;;;;;;;;5010566;28;20064;-52
2022/06/02 01:23:33;;;;;;;1.13;0.60;;;;;;;;;;5011891;28;20395;-54
2022/06/02 01:26:17;;;;;;;0.63;0.40;;;;;;;;;;5013880;28;20030;-51
2022/06/02 01:29:02;;;;;;;1.30;0.68;;;;;;;;;;5004037;28;20032;-50
2022/06/02 01:31:35;;;;;;;1.85;0.60;;;;;;;;;;4996487;28;20399;-52
2022/06/02 01:34:06;;;;;;;1.33;0.65;;;;;;;;;;5012313;28;20051;-51
2022/06/02 01:36:32;;;;;;;;;;;;;;;;;;5014413;28;20479;-52
2022/06/02 01:39:16;;;;;;;1.20;0.57;;;;;;;;;;5013265;28;19909;-55
2022/06/02 01:41:45;;;;;;;1.63;0.40;;;;;;;;;;5011657;28;20363;-53
2022/06/02 01:44:16;;;;;;;0.70;0.60;;;;;;;;;;5010398;28;20018;-51
2022/06/02 01:46:46;;;;;;;2.53;0.77;;;;;;;;;;5013923;28;20442;-50
2022/06/02 01:49:15;;;;;;;1.20;0.70;;;;;;;;;;5011524;28;20034;-53
2022/06/02 01:51:41;;;;;;;2.75;0.50;;;;;;;;;;5013471;28;20079;-52
2022/06/02 01:54:21;;;;;;;0.85;0.60;;;;;;;;;;5010725;28;20038;-55
2022/06/02 01:57:12;;;;;;;0.40;0.40;;;;;;;;;;5009771;28;20069;-54
2022/06/02 01:59:45;;;;;;;0.60;0.60;;;;;;;;;;5013444;28;20033;-55
2022/06/02 02:02:29;;;;;;;1.40;0.52;;;;;;;;;;5013028;28;20360;-53
2022/06/02 02:05:13;;;;;;;0.90;0.60;;;;;;;;;;5010856;28;20025;-49
2022/06/02 02:07:45;;;;;;;1.17;0.60;;;;;;;;;;5013670;28;20022;-54
2022/06/02 02:10:14;;;;;;;1.05;0.70;;;;;;;;;;5011782;28;20036;-50
2022/06/02 02:12:58;;;;;;;1.67;0.60;;;;;;;;;;5010687;28;20056;-50
2022/06/02 02:15:30;;;;;;;1.00;0.50;;;;;;;;;;5012168;28;20026;-51
2022/06/02 02:18:16;;;;;;;0.60;0.52;;;;;;;;;;5012981;28;20391;-51
2022/06/02 02:20:42;;;;;;;1.63;0.60;;;;;;;;;;5004838;28;20387;-52
2022/06/02 02:23:08;;;;;;;1.55;0.60;;;;;;;;;;5011776;28;20030;-51
2022/06/02 02:25:34;;;;;;;0.90;0.55;;;;;;;;;;5012024;28;20018;-51
2022/06/02 02:28:09;;;;;;;0.95;0.50;;;;;;;;;;5012007;28;20584;-51
2022/06/02 02:30:44;;;;;;;0.75;0.47;;;;;;;;;;5011424;28;20018;-53
2022/06/02 02:33:21;;;;;;;0.98;0.60;;;;;;;;;;5011835;28;20439;-50
2022/06/02 02:35:50;;;;;;;2.42;0.60;;;;;;;;;;5013521;28;20364;-53
2022/06/02 02:38:25;;;;;;;0.45;0.40;;;;;;;;;;5013205;28;20037;-51
2022/06/02 02:41:00;;;;;;;1.02;0.50;;;;;;;;;;5009221;28;20034;-52
2022/06/02 02:43:35;;;;;;;1.05;0.82;;;;;;;;;;5012356;28;20431;-51
2022/06/02 02:46:04;;;;;;;0.93;0.55;;;;;;;;;;5013340;28;20468;-53
2022/06/02 02:48:33;;;;;;;0.60;0.50;;;;;;;;;;5011249;28;20030;-51
2022/06/02 02:51:18;;;;;;;1.85;0.57;;;;;;;;;;5009598;28;20026;-50
2022/06/02 02:53:47;;;;;;;1.38;0.60;;;;;;;;;;5009564;28;20034;-48
2022/06/02 02:56:17;;;;;;;1.52;0.65;;;;;;;;;;5013028;28;20097;-49
2022/06/02 02:58:46;;;;;;;1.05;0.60;;;;;;;;;;5013581;28;20033;-52
2022/06/02 03:01:23;;;;;;;0.73;0.40;;;;;;;;;;5013761;28;20097;-54
2022/06/02 03:03:58;;;;;;;0.85;0.50;;;;;;;;;;5015564;28;20105;-52
2022/06/02 03:06:27;;;;;;;1.85;0.47;;;;;;;;;;5015041;28;20041;-52
2022/06/02 03:08:59;;;;;;;1.42;0.75;;;;;;;;;;5012648;28;20036;-54
2022/06/02 03:11:39;;;;;;;1.20;0.70;;;;;;;;;;5013714;28;20037;-54
2022/06/02 03:14:19;;;;;;;1.15;0.50;;;;;;;;;;5014859;28;20030;-51
2022/06/02 03:16:49;;;;;;;0.70;0.55;;;;;;;;;;5011050;28;20436;-50
2022/06/02 03:19:51;;;;;;;0.88;0.40;;;;;;;;;;5011135;28;20056;-51
2022/06/02 03:22:26;;;;;;;0.90;0.38;;;;;;;;;;4939535;29;20047;-53
2022/06/02 03:25:07;;;;;;;0.65;0.40;;;;;;;;;;4999375;28;20034;-50
2022/06/02 03:27:53;;;;;;;1.30;0.47;;;;;;;;;;5013666;28;20030;-50
2022/06/02 03:30:19;;;;;;;0.63;0.40;;;;;;;;;;5014424;28;20318;-51
2022/06/02 03:32:50;;;;;;;1.17;0.70;;;;;;;;;;5013462;28;20471;-53
2022/06/02 03:35:19;;;;;;;0.60;0.40;;;;;;;;;;5016445;28;20021;-54
2022/06/02 03:38:04;;;;;;;0.50;0.38;;;;;;;;;;5015887;28;20034;-52
2022/06/02 03:40:48;;;;;;;0.80;0.80;;;;;;;;;;5014738;28;20029;-51
2022/06/02 03:43:19;;;;;;;2.72;0.70;;;;;;;;;;5014371;28;20083;-53
2022/06/02 03:46:00;;;;;;;0.60;0.40;;;;;;;;;;5015274;28;20046;-55
2022/06/02 03:48:30;;;;;;;1.10;0.70;;;;;;;;;;5014796;28;20374;-51
2022/06/02 03:50:56;;;;;;;1.65;0.68;;;;;;;;;;5015770;28;20021;-51
2022/06/02 03:53:41;;;;;;;1.10;0.60;;;;;;;;;;5014432;28;20051;-50
2022/06/02 03:56:25;;;;;;;3.45;0.70;;;;;;;;;;5009155;28;20041;-52
2022/06/02 03:58:51;;;;;;;1.70;0.47;;;;;;;;;;5015536;28;20030;-54
2022/06/02 04:01:24;;;;;;;0.80;0.52;;;;;;;;;;5014493;28;20053;-54
2022/06/02 04:04:03;;;;;;;1.45;0.50;;;;;;;;;;5013591;28;20030;-54
2022/06/02 04:06:41;;;;;;;0.80;0.52;;;;;;;;;;5016054;28;20026;-50
2022/06/02 04:09:16;;;;;;;0.50;0.50;;;;;;;;;;5013384;28;20065;-54
2022/06/02 04:14:40;;;;;;;2.55;0.65;;;;;;;;;;5014447;28;20111;-55
2022/06/02 04:17:21;;;;;;;1.75;0.80;;;;;;;;;;5013642;28;20021;-52
2022/06/02 04:22:59;;;;;;;0.60;0.57;;;;;;;;;;5009527;28;20033;-51
2022/06/02 04:25:28;;;;;;;0.82;0.65;;;;;;;;;;5006238;28;20030;-54
2022/06/02 04:28:04;;;;;;;1.20;0.77;;;;;;;;;;5015612;28;20030;-51
2022/06/02 04:30:57;;;;;;;0.60;0.47;;;;;;;;;;5014669;28;20369;-51
2022/06/02 04:33:22;;;;;;;;;;;;;;;;;;5004917;28;20050;-51
2022/06/02 04:35:57;;;;;;;1.60;0.50;;;;;;;;;;5013987;28;19910;-55
2022/06/02 04:38:32;;;;;;;0.70;0.70;;;;;;;;;;5008408;28;20050;-51
2022/06/02 04:41:09;;;;;;;0.65;0.50;;;;;;;;;;5012710;28;20121;-51
2022/06/02 04:43:53;;;;;;;1.55;0.47;;;;;;;;;;5012891;28;20371;-52
2022/06/02 04:46:38;;;;;;;2.38;0.70;;;;;;;;;;5007348;28;20092;-52
2022/06/02 04:49:11;;;;;;;1.45;0.60;;;;;;;;;;5012852;28;20030;-51
2022/06/02 04:51:46;;;;;;;0.93;0.60;;;;;;;;;;5012455;28;20037;-53
2022/06/02 04:54:16;;;;;;;1.40;0.63;;;;;;;;;;5013606;28;20463;-53
2022/06/02 04:57:01;;;;;;;1.65;0.70;;;;;;;;;;5014390;28;20018;-50
2022/06/02 04:59:36;;;;;;;2.63;0.45;;;;;;;;;;5005702;28;20438;-52
2022/06/02 05:02:24;;;;;;;0.88;0.70;;;;;;;;;;5014946;28;20123;-52
2022/06/02 05:05:05;;;;;;;1.02;0.50;;;;;;;;;;5008397;28;20032;-54
2022/06/02 05:07:50;;;;;;;0.60;0.57;;;;;;;;;;5011563;28;20026;-50
2022/06/02 05:10:35;;;;;;;0.52;0.50;;;;;;;;;;5011961;28;20352;-54
2022/06/02 05:13:01;;;;;;;0.70;0.60;;;;;;;;;;5011119;28;20038;-53
2022/06/02 05:15:27;;;;;;;0.82;0.68;;;;;;;;;;5014357;28;20125;-50
2022/06/02 05:18:11;;;;;;;1.15;0.70;;;;;;;;;;5013208;28;20038;-51
2022/06/02 05:20:49;;;;;;;2.30;0.57;;;;;;;;;;5011117;28;20034;-53
2022/06/02 05:23:38;;;;;;;1.13;0.50;;;;;;;;;;5014586;28;20496;-51
2022/06/02 05:26:07;;;;;;;1.42;0.60;;;;;;;;;;5009963;28;20030;-51
2022/06/02 05:28:45;;;;;;;1.85;0.93;;;;;;;;;;5010926;28;20049;-52
2022/06/02 05:31:19;;;;;;;1.40;0.60;;;;;;;;;;5013017;28;20032;-50
2022/06/02 05:33:55;;;;;;;1.10;0.57;;;;;;;;;;5014481;28;20018;-54
2022/06/02 05:36:21;;;;;;;1.15;0.90;;;;;;;;;;5013623;28;20026;-51
2022/06/02 05:38:50;;;;;;;1.98;0.63;;;;;;;;;;5011109;28;20196;-54
2022/06/02 05:41:19;;;;;;;1.33;0.50;;;;;;;;;;5012869;28;20022;-51
2022/06/02 05:43:45;;;;;;;2.67;0.68;;;;;;;;;;5014156;28;20060;-51
2022/06/02 05:46:11;;;;;;;3.15;0.70;;;;;;;;;;5011895;28;20073;-54
2022/06/02 05:48:40;;;;;;;0.88;0.77;;;;;;;;;;5012467;28;20033;-55
2022/06/02 05:51:24;;;;;;;1.10;0.68;;;;;;;;;;5013642;28;20555;-55
2022/06/02 05:54:09;;;;;;;3.00;0.70;;;;;;;;;;5005613;28;20037;-52
2022/06/02 05:56:35;;;;;;;3.90;0.95;;;;;;;;;;5009092;28;20030;-53
2022/06/02 05:59:01;;;;;;;2.50;1.38;;;;;;;;;;5012130;28;20029;-55
2022/06/02 06:01:30;;;;;;;3.75;0.90;;;;;;;;;;5013831;28;20021;-52
2022/06/02 06:04:05;;;;;;;2.35;1.15;;;;;;;;;;5012458;28;20026;-51
2022/06/02 06:06:47;;;;;;;10.30;2.20;;;;;;;;;;5010740;28;20029;-54
2022/06/02 06:09:19;;;;;;;1.50;0.70;;;;;;;;;;4997324;28;20021;-54
2022/06/02 06:12:04;;;;;;;2.03;0.90;;;;;;;;;;5013546;28;20483;-54
2022/06/02 06:14:36;;;;;;;1.73;0.85;;;;;;;;;;5010670;28;20026;-55
2022/06/02 06:17:02;;;;;;;;;;;;;;;;;;5011303;28;20479;-51
2022/06/02 06:19:43;;;;;;;3.33;1.20;;;;;;;;;;5011422;28;19917;-51
2022/06/02 06:22:33;;;;;;;2.60;0.95;;;;;;;;;;5007304;28;20103;-49
2022/06/02 06:25:05;;;;;;;2.10;0.98;;;;;;;;;;5003384;28;20028;-51
2022/06/02 06:27:34;;;;;;;2.60;1.00;;;;;;;;;;5011515;28;20022;-53
2022/06/02 06:30:16;;;;;;;2.70;0.90;;;;;;;;;;5009881;28;20523;-51
2022/06/02 06:32:42;;;;;;;;;;;;;;;;;;5007881;28;20044;-53
2022/06/02 06:35:26;;;;;;;0.93;0.70;;;;;;;;;;5000740;28;19910;-53
2022/06/02 06:37:52;;;;;;;2.95;1.00;;;;;;;;;;5005900;28;20045;-54
2022/06/02 06:40:35;;;;;;;1.10;0.93;;;;;;;;;;5011744;28;20064;-54
2022/06/02 06:43:21;;;;;;;3.13;1.15;;;;;;;;;;5003815;28;20030;-56
2022/06/02 06:46:07;;;;;;;1.88;0.95;;;;;;;;;;5012786;28;20058;-54
2022/06/02 06:48:38;;;;;;;5.40;0.80;;;;;;;;;;5012068;28;20026;-50
2022/06/02 06:51:22;;;;;;;2.47;0.75;;;;;;;;;;5014091;28;20289;-53
2022/06/02 06:54:13;;;;;;;1.45;0.88;;;;;;;;;;5007716;28;20054;-51
2022/06/02 06:56:42;;;;;;;2.25;1.05;;;;;;;;;;5002033;28;20072;-51
2022/06/02 06:59:14;;;;;;;1.80;1.00;;;;;;;;;;5010372;28;20030;-53
2022/06/02 07:01:59;;;;;;;1.58;1.05;;;;;;;;;;5009968;28;20105;-53
2022/06/02 07:04:34;;;;;;;5.18;0.90;;;;;;;;;;5011027;28;20089;-53
2022/06/02 07:07:06;;;;;;;2.83;0.68;;;;;;;;;;5010117;28;20028;-52
2022/06/02 07:09:43;;;;;;;3.33;0.98;;;;;;;;;;5011534;28;20018;-52
2022/06/02 07:15:23;;;;;;;1.30;0.57;;;;;;;;;;5010562;28;20029;-51
2022/06/02 07:17:52;;;;;;;2.15;0.90;;;;;;;;;;5011164;28;20540;-53
2022/06/02 07:20:40;;;;;;;2.42;0.85;;;;;;;;;;5010570;28;20040;-52
2022/06/02 07:23:14;;;;;;;0.80;0.60;;;;;;;;;;5010821;28;20038;-51
2022/06/02 07:25:55;;;;;;;2.03;0.60;;;;;;;;;;5010891;28;20029;-49
2022/06/02 07:28:22;;;;;;;4.32;0.95;;;;;;;;;;5010979;28;20022;-53
2022/06/02 07:31:07;;;;;;;2.35;0.75;;;;;;;;;;5010205;28;20613;-53
2022/06/02 07:33:36;;;;;;;1.88;0.60;;;;;;;;;;5005951;28;20085;-49
2022/06/02 07:36:20;;;;;;;2.72;0.70;;;;;;;;;;5004584;28;20033;-53
2022/06/02 07:38:55;;;;;;;1.45;0.90;;;;;;;;;;4994017;28;20132;-53
2022/06/02 07:41:40;;;;;;;1.27;0.70;;;;;;;;;;5001956;28;20081;-50
2022/06/02 07:44:24;;;;;;;1.20;0.57;;;;;;;;;;5012181;28;20101;-52
2022/06/02 07:46:50;;;;;;;1.58;0.60;;;;;;;;;;4994125;28;20069;-53
2022/06/02 07:49:23;;;;;;;1.42;0.88;;;;;;;;;;5010719;28;20025;-52
2022/06/02 07:52:09;;;;;;;3.35;0.95;;;;;;;;;;5014521;28;20050;-50
2022/06/02 07:54:38;;;;;;;1.58;1.20;;;;;;;;;;5012131;28;20033;-49
2022/06/02 07:57:07;;;;;;;3.92;0.90;;;;;;;;;;5012428;28;20032;-53
2022/06/02 07:59:50;;;;;;;0.60;0.55;;;;;;;;;;5012920;28;20026;-52
2022/06/02 08:02:19;;;;;;;1.85;0.50;;;;;;;;;;5011471;28;20022;-53
2022/06/02 08:05:01;;;;;;;2.13;0.60;;;;;;;;;;5013498;28;20026;-52
2022/06/02 08:07:35;;;;;;;1.25;0.90;;;;;;;;;;5010884;28;20479;-51
2022/06/02 08:10:04;;;;;;;0.75;0.63;;;;;;;;;;5012995;28;20037;-54
2022/06/02 08:12:33;;;;;;;2.88;0.50;;;;;;;;;;5012932;28;20053;-54
2022/06/02 08:15:11;;;;;;;1.60;0.60;;;;;;;;;;5005861;28;20388;-52
2022/06/02 08:17:57;;;;;;;2.92;0.70;;;;;;;;;;5013719;28;20026;-54
2022/06/02 08:20:26;;;;;;;1.00;0.52;;;;;;;;;;5008184;28;20498;-54
2022/06/02 08:22:52;;;;;;;2.53;0.70;;;;;;;;;;5013617;28;20112;-53
2022/06/02 08:25:22;;;;;;;1.13;0.65;;;;;;;;;;5013280;28;20104;-52
2022/06/02 08:27:51;;;;;;;2.65;0.80;;;;;;;;;;5013785;28;20033;-52
2022/06/02 08:30:20;;;;;;;1.60;1.15;;;;;;;;;;5012614;28;20026;-49
2022/06/02 08:33:05;;;;;;;1.27;0.70;;;;;;;;;;5013101;28;20173;-50
2022/06/02 08:35:38;;;;;;;0.82;0.68;;;;;;;;;;5008214;28;20072;-53
2022/06/02 08:38:23;;;;;;;1.77;0.70;;;;;;;;;;5012840;28;20128;-53
2022/06/02 08:43:54;;;;;;;1.67;0.80;;;;;;;;;;5009224;28;20033;-50
2022/06/02 08:46:29;;;;;;;1.27;0.60;;;;;;;;;;5011905;28;20049;-52
2022/06/02 08:48:55;;;;;;;2.22;0.70;;;;;;;;;;5012004;28;20033;-50
2022/06/02 08:51:40;;;;;;;1.88;0.63;;;;;;;;;;5012510;28;20069;-51
2022/06/02 08:54:09;;;;;;;0.88;0.60;;;;;;;;;;5012066;28;20368;-53
2022/06/02 08:56:35;;;;;;;1.60;0.60;;;;;;;;;;4994671;28;20483;-53
2022/06/02 08:59:34;;;;;;;0.90;0.60;;;;;;;;;;5002038;28;20115;-54
2022/06/02 09:02:17;;;;;;;1.13;0.60;;;;;;;;;;5010310;28;20022;-53
2022/06/02 09:04:46;;;;;;;1.00;0.70;;;;;;;;;;5012994;28;20076;-51
2022/06/02 09:07:31;;;;;;;1.33;0.50;;;;;;;;;;5012283;28;20109;-50
2022/06/02 09:10:12;;;;;;;0.68;0.45;;;;;;;;;;5013210;28;20489;-55
2022/06/02 09:12:41;;;;;;;1.58;0.70;;;;;;;;;;5013087;28;20479;-54
2022/06/02 09:15:16;;;;;;;0.73;0.45;;;;;;;;;;5011884;28;20061;-55
2022/06/02 09:18:03;;;;;;;1.63;0.77;;;;;;;;;;5013127;28;20022;-51
2022/06/02 09:20:45;;;;;;;1.30;0.75;;;;;;;;;;5013183;28;20049;-54
2022/06/02 09:23:22;;;;;;;1.02;0.60;;;;;;;;;;5004138;28;20133;-55
2022/06/02 09:26:07;;;;;;;1.00;0.50;;;;;;;;;;5012791;28;20022;-51
2022/06/02 09:28:33;;;;;;;0.73;0.55;;;;;;;;;;5011954;28;20022;-54
2022/06/02 09:31:14;;;;;;;1.10;0.50;;;;;;;;;;5012295;28;20494;-52
2022/06/02 09:33:43;;;;;;;1.20;0.77;;;;;;;;;;5009013;28;20526;-55
2022/06/02 09:36:12;;;;;;;1.13;0.60;;;;;;;;;;4998094;28;20065;-53
2022/06/02 09:38:53;;;;;;;2.85;0.98;;;;;;;;;;5005918;28;20024;-52
2022/06/02 09:41:19;;;;;;;1.30;0.70;;;;;;;;;;5011128;28;20177;-53
2022/06/02 09:43:45;;;;;;;2.05;1.13;;;;;;;;;;5006838;28;20537;-55
2022/06/02 09:46:37;;;;;;;1.02;0.68;;;;;;;;;;5011530;28;20049;-55
2022/06/02 09:49:26;;;;;;;1.40;0.65;;;;;;;;;;4975469;28;20034;-54
2022/06/02 09:52:02;;;;;;;0.32;0.30;;;;;;;;;;5005630;28;20507;-54
2022/06/02 09:54:34;;;;;;;0.50;0.50;;;;;;;;;;4994348;28;20422;-54
2022/06/02 09:57:55;;;;;;;0.90;0.57;;;;;;;;;;5011105;28;20092;-49
2022/06/02 10:00:00;;;;;;;1.05;0.57;;;;;;;;;;5006774;28;20038;-54
2022/06/02 10:02:39;;;;;;;2.33;1.10;;;;;;;;;;5010179;28;20083;-51
2022/06/02 10:05:25;;;;;;;1.13;0.70;;;;;;;;;;5008294;28;20033;-52
2022/06/02 10:07:54;;;;;;;1.42;0.55;;;;;;;;;;5011246;28;20156;-52
2022/06/02 10:10:20;;;;;;;0.90;0.50;;;;;;;;;;5003855;28;20013;-53
2022/06/02 10:13:05;;;;;;;0.85;0.68;;;;;;;;;;5011117;28;20380;-52
2022/06/02 10:15:37;;;;;;;1.35;0.57;;;;;;;;;;5011104;28;20029;-50
2022/06/02 10:18:13;;;;;;;0.70;0.65;;;;;;;;;;5007628;28;20034;-48
2022/06/02 10:20:59;;;;;;;0.70;0.60;;;;;;;;;;5008377;28;20387;-52
2022/06/02 10:23:28;;;;;;;1.67;0.52;;;;;;;;;;5003793;28;20030;-54
2022/06/02 10:25:54;;;;;;;1.85;0.98;;;;;;;;;;5010799;28;20040;-52
2022/06/02 10:28:31;;;;;;;1.83;0.50;;;;;;;;;;5009588;28;20022;-54
2022/06/02 10:31:24;;;;;;;1.33;0.50;;;;;;;;;;5009817;28;20495;-51
2022/06/02 10:33:55;;;;;;;0.60;0.50;;;;;;;;;;4981235;28;20580;-54
2022/06/02 10:36:21;;;;;;;;;;;;;;;;;;5010590;28;20617;-51
2022/06/02 10:39:16;;;;;;;1.38;0.70;;;;;;;;;;5009878;28;19959;-54
2022/06/02 10:41:45;;;;;;;1.65;0.50;;;;;;;;;;4947710;28;20051;-51
2022/06/02 10:44:11;;;;;;;1.20;0.52;;;;;;;;;;5011661;28;20106;-48
2022/06/02 10:46:43;;;;;;;1.30;0.63;;;;;;;;;;5008062;28;20049;-51
2022/06/02 10:49:21;;;;;;;1.80;0.65;;;;;;;;;;5007553;28;20061;-50
2022/06/02 10:51:53;;;;;;;1.35;0.60;;;;;;;;;;4997886;28;20046;-55
2022/06/02 10:54:26;;;;;;;0.88;0.52;;;;;;;;;;5012575;28;20032;-52
2022/06/02 10:57:01;;;;;;;2.20;0.60;;;;;;;;;;5003969;28;20065;-52
2022/06/02 10:59:37;;;;;;;1.35;0.60;;;;;;;;;;5009912;28;20033;-55
2022/06/02 11:02:03;;;;;;;0.85;0.65;;;;;;;;;;5010799;28;20034;-49
2022/06/02 11:04:48;;;;;;;1.30;0.65;;;;;;;;;;5009091;28;20018;-54
2022/06/02 11:07:26;;;;;;;3.45;0.52;;;;;;;;;;5002126;28;20494;-52
2022/06/02 11:10:02;;;;;;;0.70;0.50;;;;;;;;;;5016794;28;20029;-52
2022/06/02 11:12:47;;;;;;;0.60;0.52;;;;;;;;;;5006258;28;20062;-52
2022/06/02 11:15:14;;;;;;;1.20;0.80;;;;;;;;;;5008928;28;20112;-54
2022/06/02 11:17:57;;;;;;;0.68;0.60;;;;;;;;;;5012005;28;20030;-51
2022/06/02 11:20:42;;;;;;;1.48;0.70;;;;;;;;;;5012845;28;20654;-51
2022/06/02 11:23:30;;;;;;;1.38;0.82;;;;;;;;;;5013466;28;20383;-54
2022/06/02 11:26:03;;;;;;;1.23;0.47;;;;;;;;;;5008403;28;20025;-54
2022/06/02 11:28:38;;;;;;;0.60;0.60;;;;;;;;;;5014064;28;20022;-52
2022/06/02 11:31:16;;;;;;;1.02;0.60;;;;;;;;;;5007938;28;20022;-51
2022/06/02 11:33:42;;;;;;;2.40;0.70;;;;;;;;;;5002176;28;20041;-52
2022/06/02 11:36:24;;;;;;;1.08;0.70;;;;;;;;;;5013958;28;20375;-51
2022/06/02 11:39:02;;;;;;;1.70;0.82;;;;;;;;;;5008699;28;20026;-54
2022/06/02 11:41:31;;;;;;;0.60;0.60;;;;;;;;;;5007683;28;20026;-52
2022/06/02 11:44:23;;;;;;;1.95;0.60;;;;;;;;;;5014004;28;20034;-51
2022/06/02 11:47:04;;;;;;;1.17;0.60;;;;;;;;;;5012437;28;20108;-50
2022/06/02 11:49:30;;;;;;;2.55;0.50;;;;;;;;;;5016186;28;20053;-53
2022/06/02 11:52:14;;;;;;;1.20;0.70;;;;;;;;;;5010214;28;20038;-51
2022/06/02 11:54:49;;;;;;;1.13;0.98;;;;;;;;;;5013309;28;20030;-53
2022/06/02 11:57:38;;;;;;;3.90;1.10;;;;;;;;;;5012991;28;20057;-54
2022/06/02 12:00:24;;;;;;;1.05;0.52;;;;;;;;;;5005730;28;20511;-49
2022/06/02 12:03:09;;;;;;;2.17;0.65;;;;;;;;;;5006635;28;20038;-53
2022/06/02 12:05:55;;;;;;;0.85;0.55;;;;;;;;;;5010475;28;20033;-52
2022/06/02 12:08:33;;;;;;;1.67;0.98;;;;;;;;;;5012855;28;20552;-50
2022/06/02 12:11:02;;;;;;;2.10;0.50;;;;;;;;;;5013184;28;20033;-51
2022/06/02 12:13:31;;;;;;;1.38;0.68;;;;;;;;;;5012783;28;20026;-53
2022/06/02 12:16:09;;;;;;;1.45;0.68;;;;;;;;;;5009216;28;20034;-52
2022/06/02 12:18:35;;;;;;;1.65;0.55;;;;;;;;;;5013584;28;20022;-53
2022/06/02 12:21:10;;;;;;;0.80;0.50;;;;;;;;;;5012966;28;20037;-51
2022/06/02 12:23:45;;;;;;;1.73;0.75;;;;;;;;;;5011364;28;20474;-50
2022/06/02 12:26:17;;;;;;;0.80;0.60;;;;;;;;;;5012439;28;20037;-52
2022/06/02 12:28:43;;;;;;;3.35;0.88;;;;;;;;;;5006094;28;20423;-51
2022/06/02 12:31:28;;;;;;;2.60;0.65;;;;;;;;;;4993678;28;20042;-53
2022/06/02 12:34:09;;;;;;;2.65;0.80;;;;;;;;;;5009358;28;20565;-54
2022/06/02 12:36:53;;;;;;;3.35;0.85;;;;;;;;;;5005756;28;20033;-54
2022/06/02 12:39:25;;;;;;;1.02;0.50;;;;;;;;;;5007963;28;20105;-53
2022/06/02 12:41:51;;;;;;;1.77;0.52;;;;;;;;;;5010254;28;20045;-54
2022/06/02 12:44:36;;;;;;;0.75;0.50;;;;;;;;;;5013339;28;20038;-50
2022/06/02 12:47:05;;;;;;;0.75;0.60;;;;;;;;;;5012854;28;20479;-50
2022/06/02 12:49:31;;;;;;;1.70;0.70;;;;;;;;;;5012581;28;20030;-53
2022/06/02 12:52:15;;;;;;;1.13;0.80;;;;;;;;;;5012122;28;20044;-54
2022/06/02 12:54:44;;;;;;;0.98;0.60;;;;;;;;;;5009065;28;20041;-53
2022/06/02 12:57:29;;;;;;;1.38;0.90;;;;;;;;;;5012160;28;20144;-51
2022/06/02 13:00:13;;;;;;;1.30;0.90;;;;;;;;;;5012776;28;20041;-52
2022/06/02 13:02:57;;;;;;;1.20;0.70;;;;;;;;;;5013529;28;20030;-55
2022/06/02 13:05:59;;;;;;;1.08;0.77;;;;;;;;;;5006579;28;20052;-53
2022/06/02 13:08:28;;;;;;;1.35;0.82;;;;;;;;;;4950318;29;20480;-52
2022/06/02 13:11:09;;;;;;;0.68;0.50;;;;;;;;;;5001994;28;20030;-51
2022/06/02 13:13:39;;;;;;;1.20;0.43;;;;;;;;;;5009150;28;20030;-51
2022/06/02 13:16:15;;;;;;;0.93;0.50;;;;;;;;;;5012526;28;20034;-51
2022/06/02 13:18:56;;;;;;;0.60;0.60;;;;;;;;;;5010499;28;20025;-52
2022/06/02 13:21:41;;;;;;;0.63;0.50;;;;;;;;;;5007117;28;20018;-53
2022/06/02 13:24:32;;;;;;;2.75;0.60;;;;;;;;;;5009071;28;20367;-52
2022/06/02 13:27:07;;;;;;;0.60;0.40;;;;;;;;;;5008456;28;20105;-52
2022/06/02 13:29:39;;;;;;;0.70;0.65;;;;;;;;;;5012496;28;20506;-50
2022/06/02 13:32:11;;;;;;;1.10;0.50;;;;;;;;;;5005670;28;20423;-51
2022/06/02 13:34:56;;;;;;;0.95;0.70;;;;;;;;;;5010975;28;20038;-52
2022/06/02 13:37:24;;;;;;;0.82;0.70;;;;;;;;;;5004153;28;20053;-52
2022/06/02 13:40:03;;;;;;;2.70;0.90;;;;;;;;;;5010136;28;20036;-52
2022/06/02 13:42:37;;;;;;;0.60;0.52;;;;;;;;;;5009084;28;20034;-52
2022/06/02 13:45:16;;;;;;;0.45;0.35;;;;;;;;;;5008011;28;20499;-51
2022/06/02 13:48:01;;;;;;;1.88;0.57;;;;;;;;;;5008109;28;20030;-52
2022/06/02 13:50:33;;;;;;;0.80;0.50;;;;;;;;;;5009331;28;20041;-51
2022/06/02 13:52:59;;;;;;;1.27;1.05;;;;;;;;;;5009372;28;20038;-54
2022/06/02 13:58:31;;;;;;;1.40;0.60;;;;;;;;;;5011348;28;20044;-51
2022/06/02 14:01:16;;;;;;;1.00;0.60;;;;;;;;;;5009715;28;20125;-52
2022/06/02 14:04:21;;;;;;;1.33;0.70;;;;;;;;;;5012242;28;20030;-47
2022/06/02 14:07:07;;;;;;;1.63;0.40;;;;;;;;;;4936828;29;20416;-53
2022/06/02 14:09:48;;;;;;;2.70;0.88;;;;;;;;;;4932695;29;20088;-50
2022/06/02 14:12:31;;;;;;;2.22;0.80;;;;;;;;;;4937343;29;20039;-52
2022/06/02 14:15:15;;;;;;;5.05;0.77;;;;;;;;;;4932913;29;20520;-50
2022/06/02 14:18:00;;;;;;;1.75;0.52;;;;;;;;;;4930998;29;20453;-51
2022/06/02 14:20:38;;;;;;;2.42;0.50;;;;;;;;;;4930804;29;20047;-51
2022/06/02 14:23:08;;;;;;;1.38;0.88;;;;;;;;;;4932534;29;20042;-51
2022/06/02 14:26:09;;;;;;;0.77;0.45;;;;;;;;;;4933707;29;20094;-52
2022/06/02 14:28:41;;;;;;;1.53;0.67;;;;;;;;;;4886165;29;20033;-52
2022/06/02 14:31:30;;;;;;;1.25;0.60;;;;;;;;;;4924271;29;20044;-51
2022/06/02 14:34:11;;;;;;;0.75;0.52;;;;;;;;;;4923639;29;20557;-52
2022/06/02 14:36:53;;;;;;;0.57;0.50;;;;;;;;;;4948479;28;20031;-53
2022/06/02 14:39:18;;;;;;;0.80;0.68;;;;;;;;;;5010474;28;20053;-50
2022/06/02 14:41:44;;;;;;;1.67;0.88;;;;;;;;;;5011462;28;20541;-52
2022/06/02 14:44:36;;;;;;;1.55;0.45;;;;;;;;;;5010251;28;20375;-52
2022/06/02 14:47:15;;;;;;;0.70;0.60;;;;;;;;;;5011671;28;20068;-51
2022/06/02 14:50:04;;;;;;;1.92;0.80;;;;;;;;;;5010292;28;20022;-53
2022/06/02 14:52:33;;;;;;;1.95;0.75;;;;;;;;;;4980538;28;20037;-51
2022/06/02 14:55:03;;;;;;;1.17;0.90;;;;;;;;;;5011131;28;20026;-50
2022/06/02 14:57:49;;;;;;;2.97;0.70;;;;;;;;;;5007618;28;20156;-53
2022/06/02 15:00:18;;;;;;;0.95;0.68;;;;;;;;;;4999350;28;20121;-51
2022/06/02 15:02:44;;;;;;;0.82;0.63;;;;;;;;;;5008573;28;20030;-51
2022/06/02 15:05:22;;;;;;;1.00;0.60;;;;;;;;;;5009500;28;20026;-48
2022/06/02 15:07:57;;;;;;;2.08;0.70;;;;;;;;;;5009599;28;20033;-50
2022/06/02 15:10:29;;;;;;;1.85;1.05;;;;;;;;;;5009322;28;20026;-53
2022/06/02 15:13:02;;;;;;;2.00;0.57;;;;;;;;;;5007030;28;20030;-49
2022/06/02 15:15:33;;;;;;;4.43;1.02;;;;;;;;;;5003514;28;20034;-48
2022/06/02 15:18:19;;;;;;;1.27;0.60;;;;;;;;;;5008717;28;20547;-52
2022/06/02 15:20:59;;;;;;;1.58;0.65;;;;;;;;;;5007849;28;20029;-51
2022/06/02 15:23:44;;;;;;;3.33;0.70;;;;;;;;;;5007152;28;20022;-50
2022/06/02 15:26:19;;;;;;;1.42;1.08;;;;;;;;;;5006344;28;20046;-50
2022/06/02 15:28:54;;;;;;;2.00;0.70;;;;;;;;;;5008952;28;20030;-56
2022/06/02 15:31:28;;;;;;;3.17;0.80;;;;;;;;;;5011370;28;20021;-57
2022/06/02 15:34:04;;;;;;;2.88;1.27;;;;;;;;;;5012242;28;20081;-51
2022/06/02 15:37:01;;;;;;;2.38;0.65;;;;;;;;;;5010215;28;20623;-50
2022/06/02 15:39:28;;;;;;;3.53;0.90;;;;;;;;;;5003409;28;20045;-52
2022/06/02 15:41:54;;;;;;;2.20;0.90;;;;;;;;;;5009118;28;20030;-51
2022/06/02 15:44:19;;;;;;;2.72;0.90;;;;;;;;;;5009986;28;20025;-55
2022/06/02 15:47:01;;;;;;;2.25;0.77;;;;;;;;;;5010267;28;20057;-53
2022/06/02 15:49:45;;;;;;;6.25;0.95;;;;;;;;;;5009400;28;20034;-57
2022/06/02 15:52:21;;;;;;;2.78;1.20;;;;;;;;;;5008637;28;20437;-54
2022/06/02 15:55:26;;;;;;;2.28;0.80;;;;;;;;;;5010437;28;20030;-52
2022/06/02 15:57:55;;;;;;;5.00;1.35;;;;;;;;;;4926556;29;20035;-55